createdAt,value
2018-12-30T00:00:39.685Z,4.89
2018-12-30T00:03:09.554Z,4.87
2018-12-30T00:05:39.355Z,4.84
2018-12-30T00:08:08.877Z,4.77
2018-12-30T00:10:38.336Z,4.80
2018-12-30T00:13:07.909Z,4.86
2018-12-30T00:15:37.592Z,4.81
2018-12-30T00:18:07.482Z,4.86
2018-12-30T00:20:38.774Z,4.82
2018-12-30T00:23:08.564Z,4.76
2018-12-30T00:25:38.290Z,4.77
2018-12-30T00:28:07.776Z,4.74
2018-12-30T00:30:37.293Z,4.81
2018-12-30T00:33:06.893Z,4.84
2018-12-30T00:35:36.380Z,4.85
2018-12-30T00:38:06.192Z,4.88
2018-12-30T00:40:35.776Z,4.91
2018-12-30T00:43:05.426Z,4.92
2018-12-30T00:45:34.968Z,4.93
2018-12-30T00:48:04.562Z,5.04
2018-12-30T00:50:34.202Z,5.01
2018-12-30T00:53:03.796Z,5.04
2018-12-30T00:55:33.477Z,5.07
2018-12-30T00:58:02.940Z,5.09
2018-12-30T01:00:32.393Z,5.12
2018-12-30T01:03:01.857Z,5.06
2018-12-30T01:05:31.288Z,5.09
2018-12-30T01:08:00.704Z,5.10
2018-12-30T01:10:30.288Z,5.12
2018-12-30T01:12:59.843Z,5.15
2018-12-30T01:15:29.386Z,5.17
2018-12-30T01:17:59.220Z,5.15
2018-12-30T01:20:28.638Z,5.15
2018-12-30T01:22:58.248Z,5.20
2018-12-30T01:25:27.948Z,5.18
2018-12-30T01:27:57.486Z,5.13
2018-12-30T01:30:27.245Z,5.13
2018-12-30T01:32:56.701Z,5.16
2018-12-30T01:35:26.277Z,5.16
2018-12-30T01:37:55.815Z,5.16
2018-12-30T01:40:25.264Z,5.13
2018-12-30T01:42:55.059Z,5.04
2018-12-30T01:45:24.446Z,5.06
2018-12-30T01:47:54.030Z,5.05
2018-12-30T01:50:23.545Z,5.03
2018-12-30T01:52:53.161Z,5.04
2018-12-30T01:55:22.931Z,5.04
2018-12-30T01:57:52.432Z,5.07
2018-12-30T02:00:21.950Z,4.99
2018-12-30T02:02:51.480Z,4.99
2018-12-30T02:05:21.056Z,4.98
2018-12-30T02:07:51.066Z,5.01
2018-12-30T02:10:20.565Z,5.01
2018-12-30T02:12:49.948Z,5.02
2018-12-30T02:15:19.498Z,5.04
2018-12-30T02:17:48.983Z,4.99
2018-12-30T02:20:18.706Z,4.99
2018-12-30T02:22:48.157Z,5.00
2018-12-30T02:25:17.628Z,5.03
2018-12-30T02:27:47.258Z,5.01
2018-12-30T02:30:16.776Z,4.97
2018-12-30T02:32:46.339Z,4.95
2018-12-30T02:35:15.835Z,4.89
2018-12-30T02:37:45.440Z,4.89
2018-12-30T02:40:14.898Z,4.85
2018-12-30T02:42:44.277Z,4.86
2018-12-30T02:45:13.800Z,4.81
2018-12-30T02:47:43.434Z,4.74
2018-12-30T02:50:12.858Z,4.69
2018-12-30T02:52:42.378Z,4.69
2018-12-30T02:55:12.120Z,4.70
2018-12-30T02:57:41.556Z,4.65
2018-12-30T03:00:11.020Z,4.64
2018-12-30T03:02:40.621Z,4.63
2018-12-30T03:05:10.100Z,4.61
2018-12-30T03:07:39.619Z,4.63
2018-12-30T03:10:09.104Z,4.60
2018-12-30T03:12:38.591Z,4.60
2018-12-30T03:15:08.096Z,4.67
2018-12-30T03:17:37.567Z,4.66
2018-12-30T03:20:07.160Z,4.61
2018-12-30T03:22:36.600Z,4.66
2018-12-30T03:25:06.186Z,4.69
2018-12-30T03:27:35.756Z,4.72
2018-12-30T03:30:05.837Z,4.74
2018-12-30T03:32:35.379Z,4.83
2018-12-30T03:35:04.912Z,4.81
2018-12-30T03:37:34.308Z,4.82
2018-12-30T03:40:03.782Z,4.89
2018-12-30T03:42:33.323Z,4.87
2018-12-30T03:45:02.949Z,4.89
2018-12-30T03:47:32.321Z,4.89
2018-12-30T03:50:01.964Z,4.91
2018-12-30T03:52:31.512Z,4.86
2018-12-30T03:55:01.063Z,4.87
2018-12-30T03:57:30.525Z,4.83
2018-12-30T04:00:00.012Z,4.77
2018-12-30T04:02:29.540Z,4.79
2018-12-30T04:04:59.170Z,4.78
2018-12-30T04:07:28.653Z,4.80
2018-12-30T04:09:58.160Z,4.86
2018-12-30T04:12:27.642Z,4.89
2018-12-30T04:14:57.252Z,4.91
2018-12-30T04:17:26.768Z,4.88
2018-12-30T04:19:56.455Z,4.91
2018-12-30T04:22:25.940Z,4.94
2018-12-30T04:24:55.372Z,4.96
2018-12-30T04:27:25.680Z,4.99
2018-12-30T04:29:55.165Z,4.97
2018-12-30T04:32:24.629Z,4.98
2018-12-30T04:34:54.095Z,4.99
2018-12-30T04:37:23.585Z,4.96
2018-12-30T04:39:53.084Z,4.99
2018-12-30T04:42:22.500Z,4.89
2018-12-30T04:44:52.040Z,4.93
2018-12-30T04:47:21.634Z,4.88
2018-12-30T04:49:51.030Z,4.89
2018-12-30T04:52:25.689Z,4.91
2018-12-30T04:54:51.805Z,4.91
2018-12-30T04:57:21.291Z,4.96
2018-12-30T04:59:50.797Z,4.97
2018-12-30T05:02:20.247Z,4.96
2018-12-30T05:04:49.687Z,4.93
2018-12-30T05:07:19.335Z,4.94
2018-12-30T05:09:48.871Z,4.82
2018-12-30T05:12:18.334Z,4.82
2018-12-30T05:14:47.825Z,4.85
2018-12-30T05:17:17.408Z,4.88
2018-12-30T05:19:47.095Z,4.84
2018-12-30T05:22:16.550Z,4.83
2018-12-30T05:24:46.085Z,4.82
2018-12-30T05:27:15.555Z,4.80
2018-12-30T05:29:44.948Z,4.82
2018-12-30T05:32:14.492Z,4.77
2018-12-30T05:34:43.992Z,4.79
2018-12-30T05:37:13.448Z,4.75
2018-12-30T05:39:43.035Z,4.70
2018-12-30T05:42:12.518Z,4.65
2018-12-30T05:44:42.004Z,4.63
2018-12-30T05:47:13.957Z,4.62
2018-12-30T05:49:43.467Z,4.59
2018-12-30T05:52:12.978Z,4.55
2018-12-30T05:54:42.415Z,4.58
2018-12-30T05:57:11.832Z,4.58
2018-12-30T05:59:41.435Z,4.54
2018-12-30T06:02:10.957Z,4.52
2018-12-30T06:04:40.521Z,4.57
2018-12-30T06:07:09.929Z,4.57
2018-12-30T06:09:39.375Z,4.60
2018-12-30T06:12:08.837Z,4.68
2018-12-30T06:14:38.332Z,4.70
2018-12-30T06:17:07.783Z,4.70
2018-12-30T06:19:37.421Z,4.69
2018-12-30T06:22:06.929Z,4.63
2018-12-30T06:24:36.456Z,4.57
2018-12-30T06:27:06.024Z,4.54
2018-12-30T06:29:35.679Z,4.55
2018-12-30T06:32:05.272Z,4.54
2018-12-30T06:34:34.679Z,4.57
2018-12-30T06:37:04.227Z,4.59
2018-12-30T06:39:33.792Z,4.70
2018-12-30T06:42:03.318Z,4.78
2018-12-30T06:44:32.961Z,4.78
2018-12-30T06:47:02.364Z,4.96
2018-12-30T06:49:31.807Z,5.07
2018-12-30T06:52:01.242Z,5.12
2018-12-30T06:54:30.810Z,5.11
2018-12-30T06:57:02.024Z,5.14
2018-12-30T06:59:31.462Z,5.21
2018-12-30T07:02:00.874Z,5.32
2018-12-30T07:04:30.289Z,5.44
2018-12-30T07:06:59.848Z,5.57
2018-12-30T07:09:29.417Z,5.69
2018-12-30T07:11:58.846Z,5.80
2018-12-30T07:14:28.245Z,5.90
2018-12-30T07:16:57.756Z,5.89
2018-12-30T07:19:27.219Z,5.95
2018-12-30T07:21:56.667Z,6.00
2018-12-30T07:24:26.230Z,6.12
2018-12-30T07:26:55.706Z,6.24
2018-12-30T07:29:25.233Z,6.33
2018-12-30T07:31:54.770Z,6.47
2018-12-30T07:34:24.349Z,6.57
2018-12-30T07:36:53.875Z,6.67
2018-12-30T07:39:23.319Z,6.77
2018-12-30T07:41:52.809Z,6.86
2018-12-30T07:44:22.323Z,6.90
2018-12-30T07:46:51.923Z,7.01
2018-12-30T07:49:22.327Z,7.12
2018-12-30T07:51:51.913Z,7.19
2018-12-30T07:54:21.415Z,7.20
2018-12-30T07:56:50.887Z,7.28
2018-12-30T07:59:20.427Z,7.40
2018-12-30T08:01:51.007Z,7.55
2018-12-30T08:04:20.524Z,7.64
2018-12-30T08:06:50.427Z,7.73
2018-12-30T08:09:22.532Z,7.79
2018-12-30T08:11:52.099Z,8.00
2018-12-30T08:14:21.782Z,8.09
2018-12-30T08:16:51.206Z,8.18
2018-12-30T08:19:20.865Z,8.14
2018-12-30T08:21:50.295Z,8.21
2018-12-30T08:24:23.330Z,8.30
2018-12-30T08:26:52.692Z,8.40
2018-12-30T08:29:22.104Z,8.59
2018-12-30T08:31:51.600Z,8.79
2018-12-30T08:34:21.055Z,8.98
2018-12-30T08:36:50.572Z,9.02
2018-12-30T08:39:19.988Z,9.09
2018-12-30T08:41:49.628Z,9.40
2018-12-30T08:44:19.158Z,9.51
2018-12-30T08:46:48.569Z,9.34
2018-12-30T08:49:18.214Z,9.31
2018-12-30T08:51:47.831Z,9.27
2018-12-30T08:54:17.342Z,9.32
2018-12-30T08:56:46.774Z,9.30
2018-12-30T08:59:16.399Z,9.74
2018-12-30T09:01:45.953Z,10.02
2018-12-30T09:04:15.592Z,10.20
2018-12-30T09:06:45.083Z,10.34
2018-12-30T09:09:14.539Z,10.29
2018-12-30T09:11:43.940Z,10.33
2018-12-30T09:14:13.420Z,10.20
2018-12-30T09:16:42.960Z,10.18
2018-12-30T09:19:12.483Z,10.13
2018-12-30T09:21:42.022Z,10.16
2018-12-30T09:24:11.495Z,10.23
2018-12-30T09:26:41.090Z,10.22
2018-12-30T09:29:10.538Z,10.22
2018-12-30T09:31:40.074Z,10.50
2018-12-30T09:34:09.590Z,10.38
2018-12-30T09:36:39.079Z,10.25
2018-12-30T09:39:08.823Z,10.43
2018-12-30T09:41:38.227Z,10.57
2018-12-30T09:44:07.849Z,10.68
2018-12-30T09:46:37.333Z,10.53
2018-12-30T09:49:06.769Z,10.49
2018-12-30T09:51:36.228Z,10.25
2018-12-30T09:54:05.915Z,9.93
2018-12-30T09:56:35.415Z,9.66
2018-12-30T09:59:04.796Z,9.58
2018-12-30T10:01:34.326Z,9.62
2018-12-30T10:04:03.935Z,9.60
2018-12-30T10:06:33.366Z,9.92
2018-12-30T10:09:04.361Z,10.60
2018-12-30T10:11:33.917Z,11.35
2018-12-30T10:14:04.550Z,10.99
2018-12-30T10:16:33.997Z,11.12
2018-12-30T10:19:03.496Z,11.35
2018-12-30T10:21:32.960Z,12.68
2018-12-30T10:24:02.492Z,13.28
2018-12-30T10:26:31.977Z,13.09
2018-12-30T10:29:01.415Z,12.99
2018-12-30T10:31:30.874Z,13.26
2018-12-30T10:34:00.425Z,13.47
2018-12-30T10:36:30.027Z,13.97
2018-12-30T10:38:59.892Z,14.60
2018-12-30T10:41:29.407Z,15.48
2018-12-30T10:43:58.897Z,15.30
2018-12-30T10:46:28.281Z,15.98
2018-12-30T10:48:57.755Z,15.27
2018-12-30T10:51:27.315Z,14.50
2018-12-30T10:54:00.594Z,14.56
2018-12-30T10:56:27.905Z,14.94
2018-12-30T10:58:57.594Z,15.42
2018-12-30T11:01:27.094Z,14.71
2018-12-30T11:03:56.648Z,14.22
2018-12-30T11:06:26.312Z,13.99
2018-12-30T11:08:55.857Z,13.81
2018-12-30T11:11:25.325Z,13.76
2018-12-30T11:13:54.714Z,13.45
2018-12-30T11:16:24.233Z,12.56
2018-12-30T11:18:53.698Z,12.12
2018-12-30T11:21:23.191Z,11.54
2018-12-30T11:23:52.642Z,11.08
2018-12-30T11:26:22.095Z,10.90
2018-12-30T11:28:51.628Z,10.80
2018-12-30T11:31:21.154Z,10.92
2018-12-30T11:33:50.577Z,11.01
2018-12-30T11:36:20.021Z,10.88
2018-12-30T11:38:49.612Z,10.76
2018-12-30T11:41:19.184Z,10.63
2018-12-30T11:43:48.651Z,10.30
2018-12-30T11:46:18.249Z,10.03
2018-12-30T11:48:47.766Z,9.90
2018-12-30T11:51:17.356Z,9.86
2018-12-30T11:53:46.800Z,9.91
2018-12-30T11:56:16.323Z,10.11
2018-12-30T11:58:45.857Z,10.25
2018-12-30T12:01:15.378Z,10.43
2018-12-30T12:03:44.807Z,10.48
2018-12-30T12:06:14.387Z,10.64
2018-12-30T12:08:43.841Z,10.54
2018-12-30T12:11:13.386Z,10.53
2018-12-30T12:13:43.003Z,10.58
2018-12-30T12:16:12.448Z,10.26
2018-12-30T12:18:41.912Z,10.24
2018-12-30T12:21:11.373Z,10.24
2018-12-30T12:23:40.999Z,10.21
2018-12-30T12:26:10.578Z,10.16
2018-12-30T12:28:40.054Z,10.04
2018-12-30T12:31:09.436Z,10.15
2018-12-30T12:33:39.032Z,10.08
2018-12-30T12:36:08.693Z,10.05
2018-12-30T12:38:38.141Z,10.17
2018-12-30T12:41:07.593Z,10.26
2018-12-30T12:43:37.152Z,10.47
2018-12-30T12:46:06.626Z,10.59
2018-12-30T12:48:36.098Z,10.47
2018-12-30T12:51:05.549Z,10.38
2018-12-30T12:53:35.101Z,10.10
2018-12-30T12:56:04.488Z,10.02
2018-12-30T12:58:34.427Z,9.99
2018-12-30T13:01:03.835Z,9.99
2018-12-30T13:03:33.304Z,9.93
2018-12-30T13:06:02.815Z,9.81
2018-12-30T13:08:32.285Z,9.78
2018-12-30T13:11:01.740Z,9.73
2018-12-30T13:13:31.315Z,9.51
2018-12-30T13:16:03.526Z,9.22
2018-12-30T13:18:31.981Z,8.86
2018-12-30T13:21:01.463Z,8.80
2018-12-30T13:23:31.166Z,8.65
2018-12-30T13:26:00.683Z,8.51
2018-12-30T13:28:30.236Z,8.49
2018-12-30T13:30:59.719Z,8.39
2018-12-30T13:33:29.168Z,8.26
2018-12-30T13:35:58.611Z,8.17
2018-12-30T13:38:28.661Z,8.08
2018-12-30T13:40:58.121Z,8.01
2018-12-30T13:43:27.496Z,7.88
2018-12-30T13:45:57.040Z,7.79
2018-12-30T13:48:26.534Z,7.62
2018-12-30T13:50:55.984Z,7.63
2018-12-30T13:53:25.938Z,7.58
2018-12-30T13:55:55.462Z,7.50
2018-12-30T13:58:24.954Z,7.44
2018-12-30T14:00:54.597Z,7.32
2018-12-30T14:03:24.048Z,7.29
2018-12-30T14:05:53.503Z,7.23
2018-12-30T14:08:23.017Z,7.16
2018-12-30T14:10:52.554Z,7.03
2018-12-30T14:13:22.059Z,6.96
2018-12-30T14:15:51.514Z,6.91
2018-12-30T14:18:21.037Z,6.83
2018-12-30T14:20:51.043Z,6.75
2018-12-30T14:23:20.747Z,6.67
2018-12-30T14:25:50.465Z,6.58
2018-12-30T14:28:19.978Z,6.50
2018-12-30T14:30:49.418Z,6.47
2018-12-30T14:33:18.829Z,6.41
2018-12-30T14:35:48.469Z,6.27
2018-12-30T14:38:18.516Z,6.12
2018-12-30T14:40:48.023Z,6.01
2018-12-30T14:43:17.472Z,5.90
2018-12-30T14:45:46.998Z,5.74
2018-12-30T14:48:17.264Z,5.61
2018-12-30T14:50:46.617Z,5.48
2018-12-30T14:53:19.242Z,5.41
2018-12-30T14:55:47.191Z,5.22
2018-12-30T14:58:16.728Z,5.10
2018-12-30T15:00:47.741Z,5.01
2018-12-30T15:03:17.380Z,5.00
2018-12-30T15:05:46.814Z,4.91
2018-12-30T15:08:16.410Z,4.81
2018-12-30T15:10:45.886Z,4.77
2018-12-30T15:13:15.317Z,4.72
2018-12-30T15:15:44.817Z,4.64
2018-12-30T15:18:14.385Z,4.57
2018-12-30T15:20:43.879Z,4.45
2018-12-30T15:23:13.313Z,4.38
2018-12-30T15:25:42.838Z,4.35
2018-12-30T15:28:12.329Z,4.31
2018-12-30T15:30:42.404Z,4.23
2018-12-30T15:33:11.844Z,4.19
2018-12-30T15:35:41.519Z,4.12
2018-12-30T15:38:11.132Z,4.12
2018-12-30T15:40:40.648Z,4.09
2018-12-30T15:43:10.037Z,4.09
2018-12-30T15:45:39.532Z,4.07
2018-12-30T15:48:08.998Z,4.04
2018-12-30T15:50:38.496Z,4.01
2018-12-30T15:53:07.915Z,3.98
2018-12-30T15:55:37.458Z,3.96
2018-12-30T15:58:07.036Z,3.97
2018-12-30T16:00:36.506Z,3.98
2018-12-30T16:03:06.148Z,3.96
2018-12-30T16:05:35.691Z,3.88
2018-12-30T16:08:05.201Z,3.89
2018-12-30T16:10:34.691Z,3.93
2018-12-30T16:13:04.246Z,3.92
2018-12-30T16:15:33.725Z,3.95
2018-12-30T16:18:03.122Z,3.94
2018-12-30T16:20:32.780Z,3.98
2018-12-30T16:23:02.292Z,3.99
2018-12-30T16:25:31.703Z,4.00
2018-12-30T16:28:01.140Z,3.98
2018-12-30T16:30:30.636Z,4.00
2018-12-30T16:33:00.278Z,4.02
2018-12-30T16:35:29.821Z,4.02
2018-12-30T16:37:59.460Z,4.04
2018-12-30T16:40:28.927Z,4.07
2018-12-30T16:42:58.440Z,4.09
2018-12-30T16:45:28.057Z,4.08
2018-12-30T16:47:58.086Z,4.07
2018-12-30T16:50:27.569Z,4.09
2018-12-30T16:52:57.100Z,4.08
2018-12-30T16:55:26.622Z,4.09
2018-12-30T16:57:56.059Z,4.09
2018-12-30T17:00:25.569Z,4.11
2018-12-30T17:02:55.162Z,4.12
2018-12-30T17:05:24.600Z,4.09
2018-12-30T17:07:54.188Z,4.09
2018-12-30T17:10:23.815Z,4.10
2018-12-30T17:12:53.459Z,4.13
2018-12-30T17:15:23.012Z,4.13
2018-12-30T17:17:52.536Z,4.13
2018-12-30T17:20:22.039Z,4.15
2018-12-30T17:22:51.657Z,4.16
2018-12-30T17:25:21.354Z,4.11
2018-12-30T17:27:50.824Z,4.09
2018-12-30T17:30:20.252Z,4.10
2018-12-30T17:32:49.691Z,4.11
2018-12-30T17:35:19.488Z,4.09
2018-12-30T17:37:48.934Z,4.08
2018-12-30T17:40:18.543Z,4.06
2018-12-30T17:42:48.007Z,4.12
2018-12-30T17:45:17.498Z,4.16
2018-12-30T17:47:47.050Z,4.23
2018-12-30T17:50:16.535Z,4.27
2018-12-30T17:52:45.965Z,4.28
2018-12-30T17:55:15.432Z,4.33
2018-12-30T17:57:45.091Z,4.37
2018-12-30T18:00:14.629Z,4.39
2018-12-30T18:02:44.281Z,4.39
2018-12-30T18:05:13.876Z,4.44
2018-12-30T18:07:43.591Z,4.44
2018-12-30T18:10:14.007Z,4.43
2018-12-30T18:12:43.522Z,4.36
2018-12-30T18:15:13.102Z,4.35
2018-12-30T18:17:42.609Z,4.28
2018-12-30T18:20:12.095Z,4.21
2018-12-30T18:22:41.604Z,4.16
2018-12-30T18:25:11.062Z,4.16
2018-12-30T18:27:40.639Z,4.18
2018-12-30T18:30:10.326Z,4.20
2018-12-30T18:32:39.741Z,4.21
2018-12-30T18:35:09.186Z,4.20
2018-12-30T18:37:38.789Z,4.12
2018-12-30T18:40:08.649Z,4.14
2018-12-30T18:42:38.226Z,4.16
2018-12-30T18:45:07.789Z,4.11
2018-12-30T18:47:37.322Z,4.10
2018-12-30T18:50:07.104Z,4.07
2018-12-30T18:52:36.629Z,4.08
2018-12-30T18:55:09.789Z,4.04
2018-12-30T18:57:39.217Z,4.02
2018-12-30T19:00:10.519Z,4.03
2018-12-30T19:02:40.025Z,4.04
2018-12-30T19:05:09.563Z,4.06
2018-12-30T19:07:39.016Z,4.11
2018-12-30T19:10:08.843Z,4.15
2018-12-30T19:12:38.471Z,4.14
2018-12-30T19:15:08.083Z,4.06
2018-12-30T19:17:37.549Z,4.07
2018-12-30T19:20:06.987Z,4.10
2018-12-30T19:22:36.564Z,4.16
2018-12-30T19:25:06.720Z,4.20
2018-12-30T19:27:36.254Z,4.25
2018-12-30T19:30:07.730Z,4.31
2018-12-30T19:32:37.246Z,4.36
2018-12-30T19:35:06.839Z,4.38
2018-12-30T19:37:36.316Z,4.40
2018-12-30T19:40:07.024Z,4.37
2018-12-30T19:42:36.654Z,4.41
2018-12-30T19:45:06.413Z,4.47
2018-12-30T19:47:35.822Z,4.54
2018-12-30T19:50:05.475Z,4.58
2018-12-30T19:52:34.992Z,4.65
2018-12-30T19:55:04.441Z,4.72
2018-12-30T19:57:34.075Z,4.77
2018-12-30T20:00:03.619Z,4.82
2018-12-30T20:02:33.126Z,4.82
2018-12-30T20:05:02.659Z,4.80
2018-12-30T20:07:32.265Z,4.85
2018-12-30T20:10:01.809Z,4.86
2018-12-30T20:12:31.310Z,4.91
2018-12-30T20:15:00.872Z,4.88
2018-12-30T20:17:30.420Z,4.80
2018-12-30T20:19:59.956Z,4.80
2018-12-30T20:22:29.462Z,4.85
2018-12-30T20:24:58.974Z,4.85
2018-12-30T20:27:28.655Z,4.95
2018-12-30T20:29:58.285Z,4.99
2018-12-30T20:32:27.893Z,5.05
2018-12-30T20:34:57.379Z,5.09
2018-12-30T20:37:26.986Z,5.08
2018-12-30T20:39:56.527Z,5.16
2018-12-30T20:42:26.030Z,5.19
2018-12-30T20:44:55.522Z,5.23
2018-12-30T20:47:24.963Z,5.14
2018-12-30T20:49:54.496Z,4.97
2018-12-30T20:52:24.040Z,4.97
2018-12-30T20:54:53.663Z,4.97
2018-12-30T20:57:23.103Z,4.98
2018-12-30T20:59:52.717Z,4.98
2018-12-30T21:02:22.341Z,4.97
2018-12-30T21:04:51.898Z,4.94
2018-12-30T21:07:21.558Z,4.91
2018-12-30T21:09:51.118Z,4.86
2018-12-30T21:12:20.629Z,4.84
2018-12-30T21:14:50.107Z,4.76
2018-12-30T21:17:19.768Z,4.74
2018-12-30T21:19:49.176Z,4.70
2018-12-30T21:22:18.694Z,4.67
2018-12-30T21:24:48.180Z,4.66
2018-12-30T21:27:17.697Z,4.65
2018-12-30T21:29:47.120Z,4.62
2018-12-30T21:32:16.888Z,4.61
2018-12-30T21:34:46.472Z,4.61
2018-12-30T21:37:16.080Z,4.55
2018-12-30T21:39:45.622Z,4.43
2018-12-30T21:42:15.134Z,4.41
2018-12-30T21:44:44.706Z,4.39
2018-12-30T21:47:14.245Z,4.39
2018-12-30T21:49:44.104Z,4.33
2018-12-30T21:52:13.556Z,4.30
2018-12-30T21:54:43.109Z,4.26
2018-12-30T21:57:12.673Z,4.25
2018-12-30T21:59:42.161Z,4.26
2018-12-30T22:02:11.691Z,4.30
2018-12-30T22:04:41.334Z,4.21
2018-12-30T22:07:10.900Z,4.23
2018-12-30T22:09:40.357Z,4.25
2018-12-30T22:12:09.779Z,4.23
2018-12-30T22:14:39.346Z,4.26
2018-12-30T22:17:08.775Z,4.25
2018-12-30T22:19:38.254Z,4.25
2018-12-30T22:22:07.677Z,4.26
2018-12-30T22:24:37.095Z,4.29
2018-12-30T22:27:06.564Z,4.27
2018-12-30T22:29:36.074Z,4.33
2018-12-30T22:32:05.474Z,4.37
2018-12-30T22:34:34.982Z,4.33
2018-12-30T22:37:04.573Z,4.41
2018-12-30T22:39:34.096Z,4.46
2018-12-30T22:42:03.772Z,4.53
2018-12-30T22:44:33.391Z,4.55
2018-12-30T22:47:03.000Z,4.57
2018-12-30T22:49:32.537Z,4.61
2018-12-30T22:52:02.132Z,4.66
2018-12-30T22:54:31.741Z,4.68
2018-12-30T22:57:01.317Z,4.73
2018-12-30T22:59:30.932Z,4.76
2018-12-30T23:02:00.628Z,4.77
2018-12-30T23:04:30.111Z,4.79
2018-12-30T23:07:00.292Z,4.81
2018-12-30T23:09:29.926Z,4.83
2018-12-30T23:11:59.475Z,4.84
2018-12-30T23:14:28.970Z,4.81
2018-12-30T23:16:58.467Z,4.78
2018-12-30T23:19:27.878Z,4.76
2018-12-30T23:21:57.412Z,4.75
2018-12-30T23:24:26.912Z,4.72
2018-12-30T23:26:56.392Z,4.72
2018-12-30T23:29:25.879Z,4.71
2018-12-30T23:31:55.473Z,4.67
2018-12-30T23:34:25.028Z,4.69
2018-12-30T23:36:54.558Z,4.66
2018-12-30T23:39:24.242Z,4.65
2018-12-30T23:41:53.872Z,4.62
2018-12-30T23:44:23.319Z,4.56
2018-12-30T23:46:52.862Z,4.55
2018-12-30T23:49:22.563Z,4.48
2018-12-30T23:51:52.143Z,4.47
2018-12-30T23:54:21.782Z,4.42
2018-12-30T23:56:51.293Z,4.41
2018-12-30T23:59:20.750Z,4.38
